CPM7 weather

Bradford Airport
Bradford, Ontario, Canada

Public forecast

Using degrees Celsius for public forecast. Weather courtesy of forecast.io.

Closest aviation weather report (METAR) to Bradford Airport

Closest report is CFB Borden, 14.7 nm (27.2 km) NW. Retrieved 2019/11/19 14:00 UTC (1 hour ago):

CYBN 191400Z AUTO 00000KT 4SM OVC004 OVC021 01/01 A2980 RMK SLP099

Closest aviation forecast (TAF) to Bradford Airport

Closest forecast is CFB Borden, 14.7 nm (27.2 km) NW. Retrieved 2019/11/19 12:33 UTC (2 hours ago):

TAF TAF CYBN 191130Z 1912/1924 VRB03KT 1/2SM FG OVC002 TEMPO 1912/1914 3SM BR SCT004 OVC008 FM191400 VRB03KT 2SM BR OVC005 BECMG 1914/1916 P6SM NSW SCT005 OVC015 FM191600 15005KT P6SM OVC015 TEMPO 1916/1924 SCT015 OVC025 RMK FCST BASED ON AUTO OBS NXT FCST BY 191800Z